EGNM

Leeds Bradford Airport

Leeds, United Kingdom
METAR EGNM 240750Z 02006KT 340V100 4500 BR BKN004 10/08 Q1025
Observed Flight Rules
May-24 @ 07:50 UTC (13 minutes ago) Instrument Flight Rules
Wind Visibility Clouds Conditions
20° at 6 knots 4,506 meters
  • Broken at 400' AGL
  • Mist
Temperatures Readings
Current 10°C / 50°F
Dewpoint 8°C / 46°F
Humidity 88%
Altimeter 30.27" Hg
Pressure 1025 hPa
Elevation 208
METAR EGNM 240750Z 02006KT 340V100 4500 BR BKN004 10/08 Q1025
Observed Flight Rules
May-24 @ 07:50 UTC
(13 minutes ago)
LIFR
Wind Visibility
20° at 6 knots 4,506 meters
Clouds
  • Broken at 400' AGL
Conditions
  • Mist
Temperature Dewpoint
10°C / 50°F 8°C / 46°F
Humidity Altimeter Pressure
88% 30.27" Hg 1025 hPa